createdAt,value
2022-09-18T00:01:42.558Z,10.60
2022-09-18T00:04:15.343Z,10.40
2022-09-18T00:06:45.868Z,10.30
2022-09-18T00:09:16.966Z,10.10
2022-09-18T00:11:50.541Z,10.10
2022-09-18T00:14:21.986Z,9.90
2022-09-18T00:16:51.338Z,10.10
2022-09-18T00:19:20.410Z,10.30
2022-09-18T00:21:51.693Z,10.40
2022-09-18T00:24:22.592Z,10.30
2022-09-18T00:26:52.734Z,10.40
2022-09-18T00:29:21.104Z,10.50
2022-09-18T00:31:49.601Z,10.60
2022-09-18T00:34:18.184Z,10.70
2022-09-18T00:36:47.065Z,10.70
2022-09-18T00:39:16.359Z,10.60
2022-09-18T00:41:46.075Z,10.60
2022-09-18T00:44:42.490Z,10.80
2022-09-18T00:47:30.072Z,10.90
2022-09-18T00:50:08.565Z,10.60
2022-09-18T00:52:49.402Z,10.60
2022-09-18T00:55:22.451Z,10.40
2022-09-18T00:57:55.108Z,10.50
2022-09-18T01:00:26.212Z,10.30
2022-09-18T01:02:55.107Z,10.30
2022-09-18T01:05:45.623Z,10.30
2022-09-18T01:08:36.982Z,10.40
2022-09-18T01:11:37.466Z,10.30
2022-09-18T01:14:24.680Z,10.20
2022-09-18T01:17:15.556Z,10.10
2022-09-18T01:20:36.746Z,10.10
2022-09-18T01:23:36.738Z,10.00
2022-09-18T01:26:27.879Z,10.00
2022-09-18T01:29:01.780Z,10.10
2022-09-18T01:31:39.914Z,10.20
2022-09-18T01:34:14.926Z,10.30
2022-09-18T01:36:50.235Z,10.40
2022-09-18T01:39:28.650Z,10.40
2022-09-18T01:41:59.214Z,10.40
2022-09-18T01:44:34.899Z,10.50
2022-09-18T01:47:11.846Z,10.50
2022-09-18T01:49:44.757Z,10.40
2022-09-18T01:52:22.382Z,10.30
2022-09-18T01:54:55.248Z,10.20
2022-09-18T01:57:29.173Z,10.10
2022-09-18T02:00:08.038Z,10.20
2022-09-18T02:02:43.533Z,10.20
2022-09-18T02:05:19.812Z,10.20
2022-09-18T02:07:59.729Z,10.10
2022-09-18T02:10:32.392Z,10.10
2022-09-18T02:13:04.192Z,9.90
2022-09-18T02:15:41.341Z,10.00
2022-09-18T02:18:19.317Z,10.10
2022-09-18T02:20:48.862Z,10.20
2022-09-18T02:23:18.316Z,10.00
2022-09-18T02:25:53.165Z,10.10
2022-09-18T02:28:26.311Z,10.20
2022-09-18T02:30:56.249Z,10.40
2022-09-18T02:33:27.695Z,10.40
2022-09-18T02:36:25.016Z,10.40
2022-09-18T02:39:09.003Z,10.20
2022-09-18T02:41:50.505Z,10.20
2022-09-18T02:44:26.804Z,10.30
2022-09-18T02:47:08.804Z,10.30
2022-09-18T02:49:51.067Z,10.40
2022-09-18T02:52:26.648Z,10.20
2022-09-18T02:55:02.024Z,10.20
2022-09-18T02:57:37.136Z,10.20
2022-09-18T03:00:11.146Z,10.20
2022-09-18T03:02:41.450Z,10.10
2022-09-18T03:05:10.651Z,10.10
2022-09-18T03:07:39.457Z,10.00
2022-09-18T03:10:08.785Z,9.90
2022-09-18T03:12:37.934Z,9.80
2022-09-18T03:15:07.929Z,9.90
2022-09-18T03:17:36.533Z,9.90
2022-09-18T03:20:07.646Z,10.00
2022-09-18T03:22:36.122Z,10.00
2022-09-18T03:25:05.076Z,9.90
2022-09-18T03:27:33.448Z,9.90
2022-09-18T03:30:01.889Z,10.00
2022-09-18T03:32:30.300Z,9.90
2022-09-18T03:34:58.649Z,9.90
2022-09-18T03:37:28.454Z,9.90
2022-09-18T03:39:56.941Z,9.90
2022-09-18T03:42:25.361Z,9.90
2022-09-18T03:44:53.855Z,10.10
2022-09-18T03:47:22.197Z,10.20
2022-09-18T03:49:50.700Z,10.30
2022-09-18T03:52:19.385Z,10.30
2022-09-18T03:54:49.154Z,10.20
2022-09-18T03:57:17.554Z,10.20
2022-09-18T03:59:45.918Z,10.00
2022-09-18T04:02:14.422Z,10.00
2022-09-18T04:04:42.865Z,10.20
2022-09-18T04:07:11.310Z,10.20
2022-09-18T04:09:40.065Z,10.10
2022-09-18T04:12:09.923Z,10.20
2022-09-18T04:14:38.317Z,10.10
2022-09-18T04:17:06.792Z,10.00
2022-09-18T04:19:35.187Z,10.00
2022-09-18T04:22:03.952Z,10.00
2022-09-18T04:24:32.395Z,10.20
2022-09-18T04:27:00.814Z,10.00
2022-09-18T04:29:30.566Z,9.90
2022-09-18T04:31:59.082Z,10.10
2022-09-18T04:34:27.448Z,10.10
2022-09-18T04:36:55.828Z,10.10
2022-09-18T04:39:24.241Z,10.10
2022-09-18T04:41:52.689Z,10.10
2022-09-18T04:44:21.109Z,10.10
2022-09-18T04:46:50.963Z,10.10
2022-09-18T04:49:19.879Z,10.00
2022-09-18T04:51:48.444Z,10.00
2022-09-18T04:54:17.442Z,10.10
2022-09-18T04:56:45.858Z,10.20
2022-09-18T04:59:14.345Z,10.40
2022-09-18T05:01:42.749Z,10.30
2022-09-18T05:04:12.970Z,10.50
2022-09-18T05:06:41.748Z,10.30
2022-09-18T05:09:10.192Z,10.20
2022-09-18T05:11:38.579Z,10.20
2022-09-18T05:14:06.989Z,10.10
2022-09-18T05:16:35.564Z,10.20
2022-09-18T05:19:04.310Z,10.20
2022-09-18T05:21:34.146Z,10.20
2022-09-18T05:24:02.791Z,10.30
2022-09-18T05:26:31.520Z,10.20
2022-09-18T05:28:59.934Z,10.30
2022-09-18T05:31:28.408Z,10.40
2022-09-18T05:33:57.055Z,10.40
2022-09-18T05:36:25.501Z,10.40
2022-09-18T05:38:55.274Z,10.40
2022-09-18T05:41:23.617Z,10.40
2022-09-18T05:43:52.002Z,10.20
2022-09-18T05:46:20.458Z,10.30
2022-09-18T05:48:50.229Z,10.40
2022-09-18T05:51:18.674Z,10.50
2022-09-18T05:53:48.559Z,10.30
2022-09-18T05:56:18.803Z,10.50
2022-09-18T05:58:47.176Z,10.60
2022-09-18T06:01:15.670Z,10.50
2022-09-18T06:03:44.078Z,10.50
2022-09-18T06:06:12.466Z,10.50
2022-09-18T06:08:40.911Z,10.40
2022-09-18T06:11:09.633Z,10.50
2022-09-18T06:13:39.546Z,10.60
2022-09-18T06:16:08.021Z,10.70
2022-09-18T06:18:36.607Z,10.70
2022-09-18T06:21:05.396Z,10.80
2022-09-18T06:23:34.233Z,10.80
2022-09-18T06:26:05.716Z,10.60
2022-09-18T06:28:35.209Z,10.50
2022-09-18T06:31:06.125Z,10.40
2022-09-18T06:33:36.308Z,10.40
2022-09-18T06:36:09.265Z,10.40
2022-09-18T06:38:37.709Z,10.50
2022-09-18T06:41:06.517Z,10.50
2022-09-18T06:43:35.023Z,10.40
2022-09-18T06:46:05.828Z,10.40
2022-09-18T06:48:34.354Z,10.40
2022-09-18T06:51:02.830Z,10.40
2022-09-18T06:53:31.231Z,10.40
2022-09-18T06:56:03.323Z,10.60
2022-09-18T06:58:31.971Z,10.50
2022-09-18T07:01:01.347Z,10.60
2022-09-18T07:03:31.236Z,10.40
2022-09-18T07:05:59.662Z,10.50
2022-09-18T07:08:28.009Z,10.40
2022-09-18T07:11:01.443Z,10.30
2022-09-18T07:13:33.132Z,10.40
2022-09-18T07:16:01.929Z,10.40
2022-09-18T07:18:31.780Z,10.60
2022-09-18T07:21:01.441Z,10.70
2022-09-18T07:23:33.039Z,10.90
2022-09-18T07:26:02.046Z,11.00
2022-09-18T07:28:30.677Z,11.00
2022-09-18T07:31:05.269Z,11.10
2022-09-18T07:33:35.401Z,11.20
2022-09-18T07:36:05.051Z,11.30
2022-09-18T07:38:34.477Z,11.30
2022-09-18T07:41:03.953Z,11.40
2022-09-18T07:43:33.268Z,11.40
2022-09-18T07:46:01.950Z,11.50
2022-09-18T07:48:30.798Z,11.30
2022-09-18T07:51:00.596Z,11.40
2022-09-18T07:53:29.630Z,11.20
2022-09-18T07:55:58.152Z,11.20
2022-09-18T07:58:26.950Z,11.30
2022-09-18T08:00:55.433Z,11.30
2022-09-18T08:03:25.410Z,11.20
2022-09-18T08:05:54.950Z,11.30
2022-09-18T08:08:25.400Z,11.20
2022-09-18T08:10:56.310Z,11.10
2022-09-18T08:13:24.751Z,11.30
2022-09-18T08:15:53.216Z,11.40
2022-09-18T08:18:22.962Z,11.40
2022-09-18T08:20:51.363Z,11.40
2022-09-18T08:23:19.782Z,11.40
2022-09-18T08:25:49.650Z,11.40
2022-09-18T08:28:18.611Z,11.50
2022-09-18T08:30:47.006Z,11.10
2022-09-18T08:33:15.636Z,11.20
2022-09-18T08:35:44.254Z,11.20
2022-09-18T08:38:12.767Z,11.30
2022-09-18T08:41:12.814Z,11.20
2022-09-18T08:43:57.291Z,11.10
2022-09-18T08:46:35.454Z,11.10
2022-09-18T08:49:23.405Z,11.20
2022-09-18T08:52:01.307Z,11.30
2022-09-18T08:54:45.425Z,11.50
2022-09-18T08:57:24.432Z,11.60
2022-09-18T08:59:58.785Z,11.60
2022-09-18T09:02:42.148Z,11.60
2022-09-18T09:05:15.982Z,11.70
2022-09-18T09:08:15.373Z,11.70
2022-09-18T09:10:56.507Z,11.70
2022-09-18T09:13:56.270Z,12.00
2022-09-18T09:16:36.177Z,12.20
2022-09-18T09:19:31.207Z,12.40
2022-09-18T09:22:14.143Z,12.60
2022-09-18T09:25:01.608Z,12.60
2022-09-18T09:27:39.539Z,12.30
2022-09-18T09:30:18.895Z,12.10
2022-09-18T09:32:56.535Z,11.90
2022-09-18T09:35:30.817Z,11.80
2022-09-18T09:38:08.036Z,11.80
2022-09-18T09:40:45.670Z,11.90
2022-09-18T09:43:26.126Z,12.10
2022-09-18T09:46:01.185Z,12.20
2022-09-18T09:48:39.568Z,11.70
2022-09-18T09:51:18.638Z,11.70
2022-09-18T09:53:47.385Z,11.60
2022-09-18T09:56:23.961Z,11.40
2022-09-18T09:59:05.037Z,11.50
2022-09-18T10:01:44.676Z,11.50
2022-09-18T10:04:29.322Z,11.40
2022-09-18T10:07:03.987Z,11.40
2022-09-18T10:09:47.105Z,11.50
2022-09-18T10:12:28.502Z,11.80
2022-09-18T10:15:06.846Z,11.90
2022-09-18T10:17:41.465Z,12.00
2022-09-18T10:20:17.397Z,12.00
2022-09-18T10:22:47.868Z,12.20
2022-09-18T10:25:27.698Z,12.20
2022-09-18T10:27:56.044Z,12.20
2022-09-18T10:30:24.482Z,12.50
2022-09-18T10:32:54.206Z,12.50
2022-09-18T10:35:46.434Z,12.40
2022-09-18T10:38:37.813Z,12.40
2022-09-18T10:41:26.096Z,12.30
2022-09-18T10:44:05.430Z,12.50
2022-09-18T10:46:37.398Z,12.70
2022-09-18T10:49:27.144Z,12.70
2022-09-18T10:52:28.608Z,12.60
2022-09-18T10:55:19.493Z,12.70
2022-09-18T10:58:08.285Z,13.10
2022-09-18T11:00:47.694Z,13.30
2022-09-18T11:03:30.134Z,13.60
2022-09-18T11:06:04.521Z,13.70
2022-09-18T11:08:38.121Z,13.80
2022-09-18T11:11:23.591Z,14.00
2022-09-18T11:13:58.449Z,14.00
2022-09-18T11:16:31.010Z,13.80
2022-09-18T11:19:07.735Z,14.10
2022-09-18T11:21:46.542Z,14.20
2022-09-18T11:24:24.931Z,14.10
2022-09-18T11:26:55.955Z,14.10
2022-09-18T11:29:32.851Z,14.20
2022-09-18T11:32:14.465Z,14.20
2022-09-18T11:34:50.113Z,14.40
2022-09-18T11:37:34.318Z,14.80
2022-09-18T11:40:06.978Z,15.30
2022-09-18T11:42:42.906Z,16.10
2022-09-18T11:45:39.849Z,16.50
2022-09-18T11:48:25.218Z,16.70
2022-09-18T11:50:58.074Z,17.00
2022-09-18T11:53:33.235Z,17.00
2022-09-18T11:56:09.205Z,16.70
2022-09-18T11:58:46.410Z,16.60
2022-09-18T12:01:28.955Z,16.70
2022-09-18T12:04:09.045Z,16.70
2022-09-18T12:06:49.640Z,16.80
2022-09-18T12:09:28.890Z,16.60
2022-09-18T12:12:05.389Z,16.40
2022-09-18T12:14:42.816Z,16.00
2022-09-18T12:17:22.711Z,16.00
2022-09-18T12:19:57.831Z,16.40
2022-09-18T12:22:39.690Z,17.00
2022-09-18T12:25:15.296Z,17.50
2022-09-18T12:27:54.049Z,17.50
2022-09-18T12:30:33.793Z,17.20
2022-09-18T12:33:31.132Z,16.80
2022-09-18T12:37:04.112Z,16.10
2022-09-18T12:40:15.020Z,15.40
2022-09-18T12:43:00.867Z,15.00
2022-09-18T12:46:16.332Z,14.50
2022-09-18T12:49:07.031Z,14.50
2022-09-18T12:51:43.416Z,14.50
2022-09-18T12:54:59.317Z,14.50
2022-09-18T12:57:46.642Z,14.60
2022-09-18T13:00:18.635Z,14.80
2022-09-18T13:02:57.100Z,14.90
2022-09-18T13:05:30.810Z,14.90
2022-09-18T13:08:12.097Z,15.10
2022-09-18T13:10:43.746Z,15.40
2022-09-18T13:13:19.887Z,15.70
2022-09-18T13:15:55.906Z,16.30
2022-09-18T13:18:37.055Z,16.80
2022-09-18T13:21:17.855Z,17.40
2022-09-18T13:23:48.948Z,17.90
2022-09-18T13:26:17.818Z,18.20
2022-09-18T13:28:46.679Z,17.80
2022-09-18T13:31:31.239Z,17.40
2022-09-18T13:34:06.432Z,17.30
2022-09-18T13:36:38.664Z,17.20
2022-09-18T13:39:18.430Z,17.10
2022-09-18T13:41:50.429Z,17.00
2022-09-18T13:44:22.706Z,16.90
2022-09-18T13:46:57.493Z,16.40
2022-09-18T13:49:30.989Z,16.50
2022-09-18T13:52:42.766Z,16.40
2022-09-18T13:55:36.345Z,16.20
2022-09-18T13:58:38.924Z,16.10
2022-09-18T14:01:10.003Z,16.10
2022-09-18T14:03:41.041Z,16.00
2022-09-18T14:06:46.346Z,16.10
2022-09-18T14:09:52.548Z,16.30
2022-09-18T14:12:22.700Z,16.30
2022-09-18T14:15:03.550Z,16.00
2022-09-18T14:17:35.153Z,15.70
2022-09-18T14:20:19.464Z,15.70
2022-09-18T14:22:49.179Z,15.60
2022-09-18T14:25:47.227Z,15.50
2022-09-18T14:28:17.899Z,15.50
2022-09-18T14:31:14.225Z,15.50
2022-09-18T14:33:46.438Z,15.50
2022-09-18T14:36:15.074Z,15.50
2022-09-18T14:38:43.488Z,15.20
2022-09-18T14:41:26.470Z,15.10
2022-09-18T14:44:01.026Z,15.00
2022-09-18T14:46:32.418Z,15.00
2022-09-18T14:49:03.368Z,15.00
2022-09-18T14:51:49.370Z,15.10
2022-09-18T14:54:26.618Z,15.20
2022-09-18T14:57:03.617Z,15.30
2022-09-18T14:59:33.126Z,15.30
2022-09-18T15:02:20.754Z,15.40
2022-09-18T15:04:50.114Z,15.30
2022-09-18T15:07:21.806Z,15.40
2022-09-18T15:09:54.285Z,15.30
2022-09-18T15:12:27.140Z,15.40
2022-09-18T15:14:55.754Z,15.30
2022-09-18T15:17:27.664Z,15.30
2022-09-18T15:19:59.220Z,15.30
2022-09-18T15:22:29.688Z,15.30
2022-09-18T15:25:00.948Z,15.30
2022-09-18T15:27:32.615Z,15.30
2022-09-18T15:30:06.074Z,15.20
2022-09-18T15:32:38.691Z,15.20
2022-09-18T15:35:14.328Z,15.10
2022-09-18T15:37:51.184Z,15.00
2022-09-18T15:40:25.736Z,15.00
2022-09-18T15:42:59.717Z,14.80
2022-09-18T15:45:31.039Z,14.50
2022-09-18T15:48:36.003Z,14.40
2022-09-18T15:51:16.453Z,14.50
2022-09-18T15:54:09.631Z,14.50
2022-09-18T15:56:49.345Z,14.60
2022-09-18T15:59:27.519Z,14.60
2022-09-18T16:01:56.679Z,14.70
2022-09-18T16:04:29.748Z,14.60
2022-09-18T16:07:04.069Z,14.50
2022-09-18T16:09:43.417Z,14.40
2022-09-18T16:12:36.365Z,14.40
2022-09-18T16:15:23.134Z,14.40
2022-09-18T16:18:04.188Z,14.40
2022-09-18T16:20:44.261Z,14.30
2022-09-18T16:23:24.292Z,14.30
2022-09-18T16:26:12.958Z,14.40
2022-09-18T16:28:47.202Z,14.40
2022-09-18T16:31:19.526Z,14.40
2022-09-18T16:33:57.325Z,14.40
2022-09-18T16:36:35.098Z,14.40
2022-09-18T16:39:07.910Z,14.40
2022-09-18T16:41:36.914Z,14.30
2022-09-18T16:44:10.976Z,13.90
2022-09-18T16:46:47.360Z,13.80
2022-09-18T16:49:20.054Z,13.70
2022-09-18T16:51:49.063Z,13.70
2022-09-18T16:54:17.510Z,13.80
2022-09-18T16:56:51.758Z,13.90
2022-09-18T16:59:22.931Z,14.00
2022-09-18T17:02:03.795Z,14.10
2022-09-18T17:04:33.324Z,14.20
2022-09-18T17:07:01.939Z,14.30
2022-09-18T17:09:30.800Z,14.30
2022-09-18T17:11:59.522Z,14.30
2022-09-18T17:14:28.236Z,14.30
2022-09-18T17:16:58.110Z,14.30
2022-09-18T17:19:26.788Z,14.20
2022-09-18T17:21:55.347Z,14.20
2022-09-18T17:24:25.616Z,14.10
2022-09-18T17:26:54.457Z,14.10
2022-09-18T17:29:23.467Z,14.20
2022-09-18T17:31:53.079Z,14.00
2022-09-18T17:34:23.118Z,13.90
2022-09-18T17:36:51.521Z,14.00
2022-09-18T17:39:19.975Z,13.90
2022-09-18T17:41:48.382Z,14.00
2022-09-18T17:44:17.038Z,14.00
2022-09-18T17:46:51.262Z,14.10
2022-09-18T17:49:20.245Z,14.10
2022-09-18T17:51:50.412Z,13.90
2022-09-18T17:54:19.171Z,13.90
2022-09-18T17:56:47.552Z,13.90
2022-09-18T17:59:15.916Z,13.90
2022-09-18T18:01:47.035Z,13.90
2022-09-18T18:04:16.335Z,14.00
2022-09-18T18:06:49.523Z,14.10
2022-09-18T18:09:17.930Z,14.10
2022-09-18T18:11:46.432Z,14.10
2022-09-18T18:14:16.071Z,14.00
2022-09-18T18:16:44.822Z,14.00
2022-09-18T18:19:22.485Z,14.10
2022-09-18T18:21:52.989Z,14.10
2022-09-18T18:24:22.340Z,14.10
2022-09-18T18:26:51.385Z,13.90
2022-09-18T18:29:22.088Z,14.00
2022-09-18T18:31:51.999Z,14.00
2022-09-18T18:34:25.497Z,14.00
2022-09-18T18:36:59.403Z,13.80
2022-09-18T18:39:28.017Z,14.00
2022-09-18T18:41:56.419Z,14.00
2022-09-18T18:44:24.833Z,14.00
2022-09-18T18:46:53.246Z,14.00
2022-09-18T18:49:21.646Z,14.00
2022-09-18T18:51:52.307Z,14.00
2022-09-18T18:54:23.753Z,13.90
2022-09-18T18:56:52.761Z,13.70
2022-09-18T18:59:23.056Z,13.60
2022-09-18T19:01:51.647Z,13.60
2022-09-18T19:04:20.492Z,13.70
2022-09-18T19:06:49.860Z,13.60
2022-09-18T19:09:26.036Z,13.60
2022-09-18T19:11:55.380Z,13.60
2022-09-18T19:14:26.338Z,13.50
2022-09-18T19:16:56.253Z,13.30
2022-09-18T19:19:28.415Z,13.20
2022-09-18T19:21:59.677Z,13.20
2022-09-18T19:24:30.325Z,13.20
2022-09-18T19:26:59.545Z,13.20
2022-09-18T19:29:30.155Z,13.20
2022-09-18T19:32:00.377Z,13.10
2022-09-18T19:34:28.826Z,13.10
2022-09-18T19:36:58.056Z,13.00
2022-09-18T19:39:27.855Z,13.00
2022-09-18T19:42:01.499Z,13.00
2022-09-18T19:44:37.182Z,12.90
2022-09-18T19:47:16.486Z,12.90
2022-09-18T19:49:49.239Z,12.90
2022-09-18T19:52:21.168Z,12.80
2022-09-18T19:54:54.642Z,12.80
2022-09-18T19:57:24.865Z,12.80
2022-09-18T19:59:55.259Z,12.90
2022-09-18T20:02:25.460Z,12.90
2022-09-18T20:04:53.932Z,12.90
2022-09-18T20:07:22.514Z,12.90
2022-09-18T20:09:52.308Z,12.90
2022-09-18T20:12:21.334Z,12.80
2022-09-18T20:14:50.793Z,12.80
2022-09-18T20:17:19.515Z,12.70
2022-09-18T20:19:48.894Z,12.80
2022-09-18T20:22:19.196Z,12.80
2022-09-18T20:24:50.020Z,12.70
2022-09-18T20:27:20.651Z,12.70
2022-09-18T20:29:49.289Z,12.60
2022-09-18T20:32:18.160Z,12.20
2022-09-18T20:34:47.978Z,12.20
2022-09-18T20:37:16.897Z,12.00
2022-09-18T20:39:45.333Z,11.90
2022-09-18T20:42:13.707Z,11.90
2022-09-18T20:44:43.638Z,11.90
2022-09-18T20:47:12.034Z,12.00
2022-09-18T20:49:40.865Z,12.00
2022-09-18T20:52:14.298Z,12.10
2022-09-18T20:54:43.146Z,12.10
2022-09-18T20:57:12.392Z,12.10
2022-09-18T20:59:46.526Z,12.10
2022-09-18T21:02:14.962Z,12.10
2022-09-18T21:04:47.199Z,12.30
2022-09-18T21:07:15.903Z,12.10
2022-09-18T21:09:44.318Z,11.80
2022-09-18T21:12:12.800Z,11.60
2022-09-18T21:14:42.748Z,11.30
2022-09-18T21:17:11.141Z,11.20
2022-09-18T21:19:40.002Z,11.10
2022-09-18T21:22:08.466Z,11.10
2022-09-18T21:24:36.988Z,11.10
2022-09-18T21:27:06.782Z,11.10
2022-09-18T21:29:35.241Z,11.00
2022-09-18T21:32:06.224Z,10.80
2022-09-18T21:34:35.047Z,10.80
2022-09-18T21:37:07.294Z,10.80
2022-09-18T21:39:37.131Z,10.70
2022-09-18T21:42:09.524Z,10.70
2022-09-18T21:44:41.645Z,10.60
2022-09-18T21:47:15.495Z,10.40
2022-09-18T21:49:44.058Z,10.20
2022-09-18T21:52:14.652Z,10.10
2022-09-18T21:54:43.122Z,10.00
2022-09-18T21:57:11.675Z,9.80
2022-09-18T21:59:40.462Z,9.70
2022-09-18T22:02:11.801Z,9.80
2022-09-18T22:04:45.156Z,10.00
2022-09-18T22:07:13.596Z,9.80
2022-09-18T22:09:43.083Z,9.90
2022-09-18T22:12:12.441Z,9.90
2022-09-18T22:14:40.850Z,9.90
2022-09-18T22:17:11.636Z,9.80
2022-09-18T22:19:41.648Z,9.90
2022-09-18T22:22:11.620Z,10.00
2022-09-18T22:24:40.096Z,10.10
2022-09-18T22:27:11.596Z,10.20
2022-09-18T22:29:43.463Z,10.10
2022-09-18T22:32:13.490Z,10.20
2022-09-18T22:34:42.483Z,10.20
2022-09-18T22:37:12.456Z,10.00
2022-09-18T22:39:40.886Z,10.10
2022-09-18T22:42:09.362Z,10.20
2022-09-18T22:44:38.006Z,10.30
2022-09-18T22:47:06.587Z,10.20
2022-09-18T22:49:36.391Z,10.20
2022-09-18T22:52:04.870Z,10.20
2022-09-18T22:54:34.381Z,10.20
2022-09-18T22:57:03.252Z,10.00
2022-09-18T22:59:44.621Z,10.10
2022-09-18T23:02:13.066Z,10.00
2022-09-18T23:04:43.028Z,10.10
2022-09-18T23:07:32.429Z,10.20
2022-09-18T23:10:00.916Z,10.30
2022-09-18T23:12:29.456Z,10.20
2022-09-18T23:14:57.878Z,10.40
2022-09-18T23:17:37.349Z,10.60
2022-09-18T23:20:07.811Z,10.70
2022-09-18T23:22:36.562Z,10.70
2022-09-18T23:25:05.433Z,10.70
2022-09-18T23:27:33.878Z,10.70
2022-09-18T23:30:02.364Z,10.70
2022-09-18T23:32:30.802Z,10.50
2022-09-18T23:34:59.206Z,10.60
2022-09-18T23:37:29.348Z,10.60
2022-09-18T23:39:57.817Z,10.70
2022-09-18T23:42:26.720Z,10.80
2022-09-18T23:44:55.099Z,10.70
2022-09-18T23:47:23.514Z,10.70
2022-09-18T23:49:51.959Z,10.60
2022-09-18T23:52:20.409Z,10.60
2022-09-18T23:54:50.297Z,10.60
2022-09-18T23:57:18.729Z,10.50
2022-09-18T23:59:49.649Z,10.50
